createdAt,value
2022-09-12T00:01:05.488Z,14.00
2022-09-12T00:03:33.594Z,13.90
2022-09-12T00:06:01.566Z,13.90
2022-09-12T00:08:29.461Z,13.80
2022-09-12T00:10:57.328Z,13.80
2022-09-12T00:13:26.567Z,13.80
2022-09-12T00:15:54.711Z,13.80
2022-09-12T00:18:22.666Z,13.80
2022-09-12T00:20:50.557Z,13.80
2022-09-12T00:23:18.451Z,13.80
2022-09-12T00:25:48.387Z,13.70
2022-09-12T00:28:19.060Z,13.60
2022-09-12T00:30:50.041Z,13.60
2022-09-12T00:33:18.815Z,13.60
2022-09-12T00:35:48.449Z,13.50
2022-09-12T00:38:17.971Z,13.50
2022-09-12T00:40:45.988Z,13.50
2022-09-12T00:43:15.714Z,13.50
2022-09-12T00:45:43.710Z,13.40
2022-09-12T00:48:23.355Z,13.40
2022-09-12T00:50:51.411Z,13.40
2022-09-12T00:53:20.069Z,13.40
2022-09-12T00:55:51.097Z,13.40
2022-09-12T00:58:22.923Z,13.40
2022-09-12T01:00:51.639Z,13.30
2022-09-12T01:03:23.183Z,13.30
2022-09-12T01:06:00.403Z,13.30
2022-09-12T01:08:30.322Z,13.20
2022-09-12T01:10:58.803Z,13.20
2022-09-12T01:13:27.241Z,13.20
2022-09-12T01:15:55.768Z,13.20
2022-09-12T01:18:32.429Z,13.10
2022-09-12T01:21:07.768Z,13.10
2022-09-12T01:24:15.405Z,13.10
2022-09-12T01:27:28.085Z,13.10
2022-09-12T01:30:19.711Z,13.10
2022-09-12T01:33:05.854Z,13.10
2022-09-12T01:35:39.787Z,13.10
2022-09-12T01:38:13.860Z,13.20
2022-09-12T01:40:46.745Z,13.20
2022-09-12T01:43:22.804Z,13.20
2022-09-12T01:45:59.110Z,13.20
2022-09-12T01:48:31.146Z,13.20
2022-09-12T01:51:06.519Z,13.20
2022-09-12T01:53:39.156Z,13.10
2022-09-12T01:56:12.536Z,13.10
2022-09-12T01:58:44.971Z,13.10
2022-09-12T02:01:17.909Z,13.10
2022-09-12T02:03:50.881Z,13.10
2022-09-12T02:06:23.312Z,13.10
2022-09-12T02:08:55.905Z,13.10
2022-09-12T02:11:23.899Z,13.10
2022-09-12T02:13:56.929Z,13.10
2022-09-12T02:16:32.497Z,13.10
2022-09-12T02:19:06.613Z,13.10
2022-09-12T02:21:39.241Z,13.10
2022-09-12T02:24:10.614Z,13.00
2022-09-12T02:26:46.199Z,13.00
2022-09-12T02:29:14.226Z,13.00
2022-09-12T02:31:47.836Z,13.00
2022-09-12T02:34:28.913Z,13.00
2022-09-12T02:37:07.750Z,13.00
2022-09-12T02:39:36.359Z,13.00
2022-09-12T02:42:05.337Z,12.90
2022-09-12T02:44:34.475Z,12.90
2022-09-12T02:47:06.860Z,12.90
2022-09-12T02:49:35.275Z,12.80
2022-09-12T02:52:03.969Z,12.80
2022-09-12T02:54:32.418Z,12.80
2022-09-12T02:57:00.417Z,12.90
2022-09-12T02:59:28.947Z,12.90
2022-09-12T03:02:16.363Z,12.90
2022-09-12T03:04:55.316Z,12.90
2022-09-12T03:07:37.739Z,12.80
2022-09-12T03:10:15.337Z,12.80
2022-09-12T03:12:52.516Z,12.80
2022-09-12T03:15:31.590Z,12.70
2022-09-12T03:18:14.620Z,12.80
2022-09-12T03:20:47.333Z,12.80
2022-09-12T03:23:25.873Z,12.80
2022-09-12T03:25:58.396Z,12.80
2022-09-12T03:28:26.745Z,12.80
2022-09-12T03:30:56.502Z,12.80
2022-09-12T03:33:27.097Z,12.80
2022-09-12T03:35:56.746Z,12.80
2022-09-12T03:38:24.657Z,12.70
2022-09-12T03:40:54.858Z,12.70
2022-09-12T03:43:22.931Z,12.60
2022-09-12T03:45:53.219Z,12.60
2022-09-12T03:48:21.214Z,12.50
2022-09-12T03:50:50.492Z,12.60
2022-09-12T03:53:18.421Z,12.50
2022-09-12T03:55:46.449Z,12.50
2022-09-12T03:58:14.379Z,12.50
2022-09-12T04:00:43.021Z,12.50
2022-09-12T04:03:11.128Z,12.50
2022-09-12T04:05:39.040Z,12.60
2022-09-12T04:08:08.290Z,12.50
2022-09-12T04:10:36.194Z,12.60
2022-09-12T04:13:04.162Z,12.50
2022-09-12T04:15:32.311Z,12.50
2022-09-12T04:18:05.076Z,12.50
2022-09-12T04:20:33.903Z,12.50
2022-09-12T04:23:01.793Z,12.40
2022-09-12T04:25:31.357Z,12.40
2022-09-12T04:27:59.278Z,12.40
2022-09-12T04:30:27.190Z,12.40
2022-09-12T04:32:55.350Z,12.30
2022-09-12T04:35:23.268Z,12.30
2022-09-12T04:37:51.160Z,12.30
2022-09-12T04:40:19.099Z,12.20
2022-09-12T04:42:48.362Z,12.20
2022-09-12T04:45:16.719Z,12.20
2022-09-12T04:47:46.408Z,12.20
2022-09-12T04:50:14.856Z,12.20
2022-09-12T04:52:42.958Z,12.20
2022-09-12T04:55:11.422Z,12.20
2022-09-12T04:57:39.340Z,12.20
2022-09-12T05:00:13.276Z,12.20
2022-09-12T05:02:41.358Z,12.20
2022-09-12T05:05:10.139Z,12.20
2022-09-12T05:07:38.191Z,12.20
2022-09-12T05:10:06.815Z,12.20
2022-09-12T05:12:34.736Z,12.20
2022-09-12T05:15:02.890Z,12.20
2022-09-12T05:17:32.191Z,12.20
2022-09-12T05:20:00.656Z,12.20
2022-09-12T05:22:28.714Z,12.20
2022-09-12T05:24:56.631Z,12.30
2022-09-12T05:27:24.535Z,12.40
2022-09-12T05:29:52.691Z,12.50
2022-09-12T05:32:20.689Z,12.50
2022-09-12T05:34:50.825Z,12.50
2022-09-12T05:37:18.707Z,12.60
2022-09-12T05:39:46.643Z,12.60
2022-09-12T05:42:14.958Z,12.70
2022-09-12T05:44:43.028Z,12.80
2022-09-12T05:47:13.072Z,12.80
2022-09-12T05:49:41.576Z,12.90
2022-09-12T05:52:10.805Z,13.00
2022-09-12T05:54:38.697Z,13.10
2022-09-12T05:57:06.993Z,13.10
2022-09-12T05:59:35.102Z,13.20
2022-09-12T06:02:03.059Z,13.30
2022-09-12T06:04:32.135Z,13.40
2022-09-12T06:07:00.075Z,13.50
2022-09-12T06:09:29.351Z,13.50
2022-09-12T06:11:57.254Z,13.50
2022-09-12T06:14:25.336Z,13.60
2022-09-12T06:16:53.465Z,13.70
2022-09-12T06:19:23.585Z,13.70
2022-09-12T06:21:52.659Z,13.80
2022-09-12T06:24:21.355Z,13.90
2022-09-12T06:26:52.570Z,14.00
2022-09-12T06:29:21.095Z,13.90
2022-09-12T06:31:49.034Z,13.90
2022-09-12T06:34:17.662Z,13.90
2022-09-12T06:36:47.425Z,14.00
2022-09-12T06:39:17.502Z,14.00
2022-09-12T06:41:46.194Z,14.10
2022-09-12T06:44:17.739Z,14.10
2022-09-12T06:46:45.999Z,14.20
2022-09-12T06:49:14.575Z,14.20
2022-09-12T06:51:43.037Z,14.40
2022-09-12T06:54:13.858Z,14.40
2022-09-12T06:56:41.787Z,14.50
2022-09-12T06:59:09.924Z,14.60
2022-09-12T07:01:40.115Z,14.70
2022-09-12T07:04:08.409Z,14.80
2022-09-12T07:06:38.708Z,14.90
2022-09-12T07:09:08.903Z,14.90
2022-09-12T07:11:38.531Z,15.00
2022-09-12T07:14:08.263Z,15.20
2022-09-12T07:16:36.837Z,15.20
2022-09-12T07:19:08.162Z,15.30
2022-09-12T07:21:39.660Z,15.40
2022-09-12T07:24:09.647Z,15.40
2022-09-12T07:26:37.743Z,15.50
2022-09-12T07:29:34.776Z,15.60
2022-09-12T07:31:54.530Z,15.70
2022-09-12T07:34:23.795Z,15.90
2022-09-12T07:36:51.722Z,16.00
2022-09-12T07:39:19.987Z,16.30
2022-09-12T07:41:47.913Z,17.30
2022-09-12T07:44:15.794Z,19.60
2022-09-12T07:46:43.679Z,21.80
2022-09-12T07:49:13.579Z,23.50
2022-09-12T07:51:43.336Z,24.70
2022-09-12T07:54:12.295Z,25.70
2022-09-12T07:56:40.785Z,26.50
2022-09-12T07:59:09.298Z,27.70
2022-09-12T08:01:37.325Z,28.80
2022-09-12T08:04:05.835Z,29.10
2022-09-12T08:06:35.971Z,29.00
2022-09-12T08:09:06.242Z,29.00
2022-09-12T08:11:34.417Z,29.60
2022-09-12T08:14:03.042Z,29.80
2022-09-12T08:16:32.086Z,29.60
2022-09-12T08:19:02.203Z,30.20
2022-09-12T08:21:31.998Z,30.40
2022-09-12T08:24:01.867Z,30.00
2022-09-12T08:26:32.669Z,30.20
2022-09-12T08:29:00.921Z,30.50
2022-09-12T08:31:29.537Z,30.70
2022-09-12T08:33:58.767Z,29.70
2022-09-12T08:36:29.565Z,29.80
2022-09-12T08:39:00.369Z,29.30
2022-09-12T08:41:34.839Z,28.70
2022-09-12T08:44:32.166Z,28.80
2022-09-12T08:47:16.014Z,29.30
2022-09-12T08:50:01.584Z,29.10
2022-09-12T08:52:34.622Z,29.20
2022-09-12T08:55:03.764Z,28.90
2022-09-12T08:57:33.561Z,28.30
2022-09-12T09:00:05.345Z,28.40
2022-09-12T09:02:51.137Z,28.70
2022-09-12T09:05:24.399Z,28.90
2022-09-12T09:08:13.198Z,28.80
2022-09-12T09:10:50.504Z,29.10
2022-09-12T09:13:51.462Z,29.70
2022-09-12T09:16:26.688Z,30.00
2022-09-12T09:18:56.534Z,29.70
2022-09-12T09:21:30.193Z,29.10
2022-09-12T09:24:03.480Z,29.10
2022-09-12T09:26:42.758Z,29.30
2022-09-12T09:29:18.589Z,29.40
2022-09-12T09:31:50.271Z,29.70
2022-09-12T09:34:21.561Z,29.90
2022-09-12T09:36:52.472Z,29.90
2022-09-12T09:39:42.768Z,30.20
2022-09-12T09:42:19.478Z,29.90
2022-09-12T09:44:49.356Z,29.50
2022-09-12T09:47:19.308Z,29.40
2022-09-12T09:49:47.991Z,29.00
2022-09-12T09:52:19.508Z,28.60
2022-09-12T09:54:53.199Z,28.50
2022-09-12T09:57:44.857Z,28.30
2022-09-12T10:00:26.900Z,28.40
2022-09-12T10:03:20.312Z,28.60
2022-09-12T10:05:50.000Z,28.20
2022-09-12T10:08:22.057Z,27.60
2022-09-12T10:10:55.142Z,27.40
2022-09-12T10:13:28.265Z,27.30
2022-09-12T10:16:03.351Z,27.30
2022-09-12T10:18:36.658Z,27.50
2022-09-12T10:21:16.241Z,27.40
2022-09-12T10:23:44.974Z,27.10
2022-09-12T10:26:15.517Z,27.50
2022-09-12T10:28:46.815Z,27.60
2022-09-12T10:31:29.056Z,27.40
2022-09-12T10:34:00.862Z,27.20
2022-09-12T10:36:38.829Z,26.50
2022-09-12T10:39:07.985Z,26.30
2022-09-12T10:41:38.815Z,26.20
2022-09-12T10:44:09.814Z,25.70
2022-09-12T10:46:40.224Z,25.40
2022-09-12T10:49:24.129Z,25.20
2022-09-12T10:51:53.932Z,25.40
2022-09-12T10:54:24.535Z,25.30
2022-09-12T10:57:23.084Z,25.20
2022-09-12T11:00:06.660Z,25.20
2022-09-12T11:02:49.123Z,25.40
2022-09-12T11:05:36.598Z,25.60
2022-09-12T11:08:23.146Z,25.10
2022-09-12T11:10:58.562Z,25.40
2022-09-12T11:13:46.306Z,25.20
2022-09-12T11:16:24.613Z,25.10
2022-09-12T11:19:13.898Z,25.20
2022-09-12T11:22:10.543Z,25.30
2022-09-12T11:24:54.037Z,25.60
2022-09-12T11:27:39.257Z,25.80
2022-09-12T11:30:12.554Z,25.90
2022-09-12T11:33:01.474Z,25.90
2022-09-12T11:35:32.126Z,25.40
2022-09-12T11:38:23.632Z,25.50
2022-09-12T11:40:55.574Z,25.40
2022-09-12T11:43:30.309Z,25.40
2022-09-12T11:46:03.523Z,25.30
2022-09-12T11:48:41.494Z,25.30
2022-09-12T11:51:19.302Z,25.10
2022-09-12T11:53:57.171Z,24.80
2022-09-12T11:56:26.285Z,24.70
2022-09-12T11:58:59.689Z,24.80
2022-09-12T12:01:35.305Z,24.80
2022-09-12T12:04:12.510Z,24.90
2022-09-12T12:06:50.009Z,25.00
2022-09-12T12:09:18.277Z,25.10
2022-09-12T12:11:52.523Z,25.00
2022-09-12T12:14:24.693Z,24.90
2022-09-12T12:16:52.822Z,24.90
2022-09-12T12:19:35.486Z,25.20
2022-09-12T12:22:18.085Z,25.30
2022-09-12T12:25:05.692Z,25.40
2022-09-12T12:27:53.630Z,25.50
2022-09-12T12:30:57.443Z,25.50
2022-09-12T12:34:08.193Z,25.70
2022-09-12T12:36:41.934Z,25.70
2022-09-12T12:39:49.872Z,25.90
2022-09-12T12:43:04.128Z,25.80
2022-09-12T12:46:05.804Z,25.60
2022-09-12T12:49:03.061Z,25.00
2022-09-12T12:51:48.050Z,25.20
2022-09-12T12:54:35.122Z,25.20
2022-09-12T12:57:06.272Z,25.40
2022-09-12T12:59:34.556Z,25.50
2022-09-12T13:02:02.762Z,25.50
2022-09-12T13:04:33.932Z,25.50
2022-09-12T13:07:08.218Z,25.50
2022-09-12T13:09:40.826Z,25.40
2022-09-12T13:12:12.469Z,25.50
2022-09-12T13:14:58.306Z,25.70
2022-09-12T13:17:33.207Z,25.80
2022-09-12T13:20:31.028Z,25.70
2022-09-12T13:23:00.136Z,25.60
2022-09-12T13:25:30.845Z,25.50
2022-09-12T13:28:01.449Z,25.50
2022-09-12T13:30:31.249Z,25.60
2022-09-12T13:33:05.833Z,25.60
2022-09-12T13:35:47.237Z,25.60
2022-09-12T13:38:26.563Z,25.40
2022-09-12T13:41:16.622Z,25.10
2022-09-12T13:43:46.932Z,24.70
2022-09-12T13:46:19.324Z,24.50
2022-09-12T13:48:47.727Z,24.30
2022-09-12T13:51:25.425Z,24.20
2022-09-12T13:53:56.210Z,24.20
2022-09-12T13:56:24.169Z,24.10
2022-09-12T13:58:54.652Z,24.00
2022-09-12T14:01:23.336Z,24.10
2022-09-12T14:04:10.685Z,24.10
2022-09-12T14:06:49.521Z,24.40
2022-09-12T14:09:25.281Z,24.60
2022-09-12T14:11:54.184Z,24.80
2022-09-12T14:14:29.304Z,24.70
2022-09-12T14:16:57.479Z,24.70
2022-09-12T14:19:27.111Z,24.80
2022-09-12T14:21:57.786Z,24.90
2022-09-12T14:24:26.156Z,25.00
2022-09-12T14:26:56.799Z,25.00
2022-09-12T14:29:26.158Z,25.00
2022-09-12T14:32:05.708Z,25.00
2022-09-12T14:34:33.861Z,25.20
2022-09-12T14:37:08.162Z,25.30
2022-09-12T14:39:40.684Z,25.20
2022-09-12T14:42:14.055Z,25.10
2022-09-12T14:44:56.194Z,25.10
2022-09-12T14:47:26.233Z,25.00
2022-09-12T14:49:54.993Z,25.10
2022-09-12T14:52:27.600Z,25.00
2022-09-12T14:55:01.226Z,25.00
2022-09-12T14:57:38.868Z,25.00
2022-09-12T15:00:22.282Z,24.90
2022-09-12T15:02:51.012Z,24.90
2022-09-12T15:05:25.092Z,24.90
2022-09-12T15:07:57.636Z,24.80
2022-09-12T15:10:30.990Z,24.80
2022-09-12T15:13:19.575Z,24.70
2022-09-12T15:15:49.545Z,24.70
2022-09-12T15:18:18.191Z,24.70
2022-09-12T15:20:47.669Z,24.70
2022-09-12T15:23:21.287Z,24.70
2022-09-12T15:25:50.128Z,24.60
2022-09-12T15:28:20.960Z,24.50
2022-09-12T15:30:51.304Z,24.50
2022-09-12T15:33:20.933Z,24.30
2022-09-12T15:35:50.819Z,24.30
2022-09-12T15:38:24.437Z,24.20
2022-09-12T15:40:54.938Z,24.10
2022-09-12T15:43:24.915Z,24.00
2022-09-12T15:45:53.533Z,23.90
2022-09-12T15:48:22.532Z,23.90
2022-09-12T15:50:50.836Z,23.90
2022-09-12T15:53:20.392Z,23.80
2022-09-12T15:55:48.585Z,23.70
2022-09-12T15:58:16.486Z,23.70
2022-09-12T16:00:44.406Z,23.70
2022-09-12T16:03:21.915Z,23.70
2022-09-12T16:05:50.017Z,23.60
2022-09-12T16:08:17.922Z,23.60
2022-09-12T16:10:50.433Z,23.60
2022-09-12T16:13:18.638Z,23.50
2022-09-12T16:15:46.618Z,23.50
2022-09-12T16:18:14.621Z,23.40
2022-09-12T16:20:42.848Z,23.40
2022-09-12T16:23:12.446Z,23.40
2022-09-12T16:25:40.681Z,23.30
2022-09-12T16:28:10.487Z,23.30
2022-09-12T16:30:38.502Z,23.30
2022-09-12T16:33:06.395Z,23.20
2022-09-12T16:35:34.313Z,23.10
2022-09-12T16:38:02.203Z,23.10
2022-09-12T16:40:31.044Z,23.00
2022-09-12T16:42:58.917Z,22.90
2022-09-12T16:45:28.229Z,22.80
2022-09-12T16:47:56.228Z,22.70
2022-09-12T16:50:24.118Z,22.60
2022-09-12T16:52:52.029Z,22.50
2022-09-12T16:55:19.987Z,22.40
2022-09-12T16:57:49.312Z,22.40
2022-09-12T17:00:17.420Z,22.30
2022-09-12T17:02:47.509Z,22.20
2022-09-12T17:05:16.410Z,22.10
2022-09-12T17:07:44.307Z,22.00
2022-09-12T17:10:12.226Z,21.90
2022-09-12T17:12:40.118Z,21.80
2022-09-12T17:15:08.433Z,21.70
2022-09-12T17:17:36.340Z,21.60
2022-09-12T17:20:06.253Z,21.50
2022-09-12T17:22:34.754Z,21.40
2022-09-12T17:25:02.646Z,21.30
2022-09-12T17:27:30.666Z,21.20
2022-09-12T17:29:58.587Z,21.20
2022-09-12T17:32:26.770Z,21.00
2022-09-12T17:34:57.859Z,21.00
2022-09-12T17:37:27.979Z,20.80
2022-09-12T17:39:56.023Z,20.70
2022-09-12T17:42:24.297Z,20.60
2022-09-12T17:44:53.699Z,20.40
2022-09-12T17:47:21.820Z,20.30
2022-09-12T17:49:50.522Z,20.20
2022-09-12T17:52:18.479Z,20.10
2022-09-12T17:54:47.725Z,20.00
2022-09-12T17:57:16.662Z,19.90
2022-09-12T17:59:44.578Z,19.80
2022-09-12T18:02:12.677Z,19.70
2022-09-12T18:04:45.772Z,19.60
2022-09-12T18:07:14.098Z,19.50
2022-09-12T18:09:42.286Z,19.40
2022-09-12T18:12:11.732Z,19.30
2022-09-12T18:14:39.644Z,19.20
2022-09-12T18:17:11.165Z,19.10
2022-09-12T18:19:41.683Z,19.10
2022-09-12T18:22:09.686Z,19.00
2022-09-12T18:24:37.586Z,18.90
2022-09-12T18:27:05.569Z,18.90
2022-09-12T18:29:34.835Z,18.80
2022-09-12T18:32:03.389Z,18.80
2022-09-12T18:34:31.318Z,18.70
2022-09-12T18:37:05.197Z,18.70
2022-09-12T18:39:33.122Z,18.60
2022-09-12T18:42:01.041Z,18.50
2022-09-12T18:44:29.130Z,18.50
2022-09-12T18:46:58.497Z,18.40
2022-09-12T18:49:27.390Z,18.40
2022-09-12T18:51:55.301Z,18.30
2022-09-12T18:54:23.219Z,18.30
2022-09-12T18:56:52.157Z,18.20
2022-09-12T18:59:20.062Z,18.10
2022-09-12T19:01:52.922Z,18.10
2022-09-12T19:04:22.212Z,18.00
2022-09-12T19:06:51.265Z,18.00
2022-09-12T19:09:24.762Z,17.90
2022-09-12T19:11:52.667Z,17.90
2022-09-12T19:14:23.436Z,17.80
2022-09-12T19:16:52.461Z,17.70
2022-09-12T19:19:22.366Z,17.80
2022-09-12T19:21:50.325Z,17.70
2022-09-12T19:24:18.396Z,17.70
2022-09-12T19:26:46.653Z,17.70
2022-09-12T19:29:16.472Z,17.60
2022-09-12T19:31:45.263Z,17.60
2022-09-12T19:34:14.404Z,17.50
2022-09-12T19:36:46.323Z,17.50
2022-09-12T19:39:16.029Z,17.50
2022-09-12T19:41:44.283Z,17.40
2022-09-12T19:44:12.565Z,17.40
2022-09-12T19:46:40.721Z,17.30
2022-09-12T19:49:08.861Z,17.20
2022-09-12T19:51:36.775Z,17.20
2022-09-12T19:54:06.105Z,17.20
2022-09-12T19:56:34.417Z,17.20
2022-09-12T19:59:08.598Z,17.20
2022-09-12T20:01:37.497Z,17.20
2022-09-12T20:04:06.688Z,17.10
2022-09-12T20:06:34.766Z,17.10
2022-09-12T20:09:02.761Z,17.00
2022-09-12T20:11:32.073Z,17.00
2022-09-12T20:14:00.030Z,16.90
2022-09-12T20:16:29.953Z,16.90
2022-09-12T20:18:59.941Z,16.90
2022-09-12T20:21:31.399Z,16.80
2022-09-12T20:24:05.003Z,16.80
2022-09-12T20:26:34.640Z,16.80
2022-09-12T20:29:03.908Z,16.70
2022-09-12T20:31:32.104Z,16.70
2022-09-12T20:34:00.090Z,16.70
2022-09-12T20:36:28.133Z,16.70
2022-09-12T20:38:57.959Z,16.70
2022-09-12T20:41:28.343Z,16.60
2022-09-12T20:44:03.091Z,16.60
2022-09-12T20:46:31.035Z,16.60
2022-09-12T20:48:59.379Z,16.60
2022-09-12T20:51:29.464Z,16.60
2022-09-12T20:53:59.268Z,16.50
2022-09-12T20:56:28.294Z,16.50
2022-09-12T20:58:57.074Z,16.50
2022-09-12T21:01:28.925Z,16.50
2022-09-12T21:03:57.097Z,16.40
2022-09-12T21:06:25.047Z,16.40
2022-09-12T21:08:58.609Z,16.40
2022-09-12T21:11:28.651Z,16.40
2022-09-12T21:13:57.162Z,16.30
2022-09-12T21:16:25.127Z,16.30
2022-09-12T21:18:59.347Z,16.30
2022-09-12T21:21:28.084Z,16.30
2022-09-12T21:23:59.551Z,16.30
2022-09-12T21:26:28.259Z,16.20
2022-09-12T21:28:56.417Z,16.20
2022-09-12T21:31:25.130Z,16.20
2022-09-12T21:33:54.675Z,16.10
2022-09-12T21:36:25.485Z,16.20
2022-09-12T21:38:53.414Z,16.10
2022-09-12T21:41:21.403Z,16.10
2022-09-12T21:43:49.773Z,16.00
2022-09-12T21:46:17.955Z,16.00
2022-09-12T21:48:45.910Z,16.00
2022-09-12T21:51:13.794Z,15.90
2022-09-12T21:53:43.059Z,15.90
2022-09-12T21:56:11.139Z,15.80
2022-09-12T21:58:39.367Z,15.80
2022-09-12T22:01:09.316Z,15.80
2022-09-12T22:03:37.392Z,15.70
2022-09-12T22:06:07.725Z,15.70
2022-09-12T22:08:37.146Z,15.60
2022-09-12T22:11:09.391Z,15.60
2022-09-12T22:13:39.157Z,15.60
2022-09-12T22:16:07.592Z,15.60
2022-09-12T22:18:36.434Z,15.60
2022-09-12T22:21:06.772Z,15.60
2022-09-12T22:23:52.888Z,15.60
2022-09-12T22:26:22.360Z,15.50
2022-09-12T22:28:50.917Z,15.50
2022-09-12T22:31:19.365Z,15.50
2022-09-12T22:33:48.521Z,15.50
2022-09-12T22:36:16.444Z,15.50
2022-09-12T22:38:44.631Z,15.40
2022-09-12T22:41:13.223Z,15.40
2022-09-12T22:43:42.601Z,15.30
2022-09-12T22:46:13.218Z,15.30
2022-09-12T22:48:41.645Z,15.30
2022-09-12T22:51:10.370Z,15.20
2022-09-12T22:53:38.830Z,15.20
2022-09-12T22:56:07.488Z,15.10
2022-09-12T22:58:37.236Z,15.10
2022-09-12T23:01:06.974Z,15.10
2022-09-12T23:03:36.262Z,15.10
2022-09-12T23:06:04.773Z,15.10
2022-09-12T23:08:34.953Z,15.20
2022-09-12T23:11:03.704Z,15.20
2022-09-12T23:13:32.159Z,15.20
2022-09-12T23:16:00.760Z,15.20
2022-09-12T23:18:30.482Z,15.20
2022-09-12T23:20:59.823Z,15.20
2022-09-12T23:23:28.081Z,15.20
2022-09-12T23:26:03.832Z,15.10
2022-09-12T23:28:31.781Z,15.10
2022-09-12T23:31:00.366Z,15.10
2022-09-12T23:33:30.076Z,15.00
2022-09-12T23:36:02.090Z,15.00
2022-09-12T23:38:30.731Z,15.00
2022-09-12T23:40:58.732Z,15.10
2022-09-12T23:43:26.974Z,15.10
2022-09-12T23:45:54.963Z,15.10
2022-09-12T23:48:22.915Z,15.00
2022-09-12T23:50:52.414Z,15.00
2022-09-12T23:53:20.415Z,14.90
2022-09-12T23:55:48.519Z,14.80
2022-09-12T23:58:16.789Z,14.80
